Time;durP1;ratioP1;P1;durP2;ratioP2;P2;SDS_P1;SDS_P2;PMS_P1;PMS_P2;Temp;Humidity;BMP_temperature;BMP_pressure;BME280_temperature;BME280_humidity;BME280_pressure;Samples;Min_cycle;Max_cycle;Signal;HPM_P1;HPM_P2
2023/08/06 00:00:11;;;;;;;9.27;6.40;;;15.90;99.90;;;;;;4973322;28;20062;-80
2023/08/06 00:02:37;;;;;;;7.00;6.25;;;15.90;99.90;;;;;;4982149;28;20039;-80
2023/08/06 00:05:02;;;;;;;7.40;6.57;;;16.00;99.90;;;;;;4972635;28;20104;-80
2023/08/06 00:07:28;;;;;;;7.90;6.60;;;15.90;99.90;;;;;;4954909;28;20053;-79
2023/08/06 00:09:54;;;;;;;6.70;6.00;;;16.00;99.90;;;;;;4976311;28;20428;-79
2023/08/06 00:12:19;;;;;;;7.38;6.03;;;15.90;99.90;;;;;;4972990;28;20057;-80
2023/08/06 00:14:45;;;;;;;8.43;5.97;;;15.90;99.90;;;;;;4980540;28;20156;-80
2023/08/06 00:17:11;;;;;;;10.63;6.35;;;15.90;99.90;;;;;;4983995;28;20530;-80
2023/08/06 00:19:37;;;;;;;7.05;6.07;;;15.90;99.90;;;;;;4971682;28;20054;-80
2023/08/06 00:22:03;;;;;;;7.05;6.32;;;15.90;99.90;;;;;;4982745;28;20061;-80
2023/08/06 00:24:28;;;;;;;8.40;6.60;;;15.90;99.90;;;;;;4985476;28;20054;-80
2023/08/06 00:26:54;;;;;;;9.93;6.78;;;15.90;99.90;;;;;;4980345;28;20456;-80
2023/08/06 00:29:20;;;;;;;8.05;7.13;;;15.80;99.90;;;;;;4983680;28;20053;-80
2023/08/06 00:31:45;;;;;;;7.95;7.15;;;15.80;99.90;;;;;;4986729;28;20050;-80
2023/08/06 00:34:11;;;;;;;8.70;7.60;;;15.90;99.90;;;;;;4985127;28;20498;-80
2023/08/06 00:36:37;;;;;;;7.53;6.72;;;15.80;99.90;;;;;;4987632;28;20042;-80
2023/08/06 00:39:02;;;;;;;9.05;7.70;;;15.80;99.90;;;;;;4967365;28;20050;-80
2023/08/06 00:41:28;;;;;;;9.95;8.05;;;15.80;99.90;;;;;;4972044;28;20034;-80
2023/08/06 00:43:54;;;;;;;10.00;8.25;;;15.80;99.90;;;;;;4977963;28;20525;-80
2023/08/06 00:46:20;;;;;;;9.05;8.05;;;15.80;99.90;;;;;;4983876;28;20049;-80
2023/08/06 00:48:46;;;;;;;9.25;8.32;;;15.80;99.90;;;;;;4985362;28;20578;-80
2023/08/06 00:51:13;;;;;;;9.30;8.30;;;15.70;99.90;;;;;;4981005;28;20081;-80
2023/08/06 00:53:39;;;;;;;9.60;8.10;;;15.70;99.90;;;;;;4980987;28;20045;-80
2023/08/06 00:56:06;;;;;;;9.70;8.70;;;15.70;99.90;;;;;;4970285;28;20054;-80
2023/08/06 00:58:32;;;;;;;9.10;8.20;;;15.70;99.90;;;;;;4986229;28;20560;-80
2023/08/06 01:00:58;;;;;;;9.32;8.30;;;15.70;99.90;;;;;;4966072;28;20144;-80
2023/08/06 01:03:24;;;;;;;8.77;7.90;;;15.70;99.90;;;;;;4983490;28;20082;-80
2023/08/06 01:05:50;;;;;;;8.80;8.00;;;15.70;99.90;;;;;;4975851;28;20437;-80
2023/08/06 01:08:49;;;;;;;10.38;9.20;;;15.70;99.90;;;;;;4982574;28;20412;-80
2023/08/06 01:11:38;;;;;;;9.75;7.78;;;15.70;99.90;;;;;;4988662;28;20092;-80
2023/08/06 01:14:28;;;;;;;8.30;7.50;;;15.70;99.90;;;;;;4977625;28;20062;-80
2023/08/06 01:16:54;;;;;;;8.10;7.30;;;15.70;99.90;;;;;;4987960;28;20035;-80
2023/08/06 01:19:21;;;;;;;9.88;7.00;;;15.70;99.90;;;;;;4968844;28;20472;-80
2023/08/06 01:21:46;;;;;;;8.63;7.72;;;15.70;99.90;;;;;;4968256;28;20047;-80
2023/08/06 01:24:12;;;;;;;8.27;7.45;;;15.70;99.90;;;;;;4990831;28;20043;-80
2023/08/06 01:26:51;;;;;;;9.10;7.85;;;15.70;99.90;;;;;;4978112;28;20043;-80
2023/08/06 01:29:30;;;;;;;9.43;8.52;;;15.70;99.90;;;;;;4985608;28;20382;-80
2023/08/06 01:31:57;;;;;;;8.55;7.65;;;15.60;99.90;;;;;;4986518;28;20049;-80
2023/08/06 01:34:30;;;;;;;10.18;8.82;;;15.60;99.90;;;;;;4982840;28;20043;-80
2023/08/06 01:36:57;;;;;;;11.20;8.27;;;15.70;99.90;;;;;;4986041;28;20490;-80
2023/08/06 01:39:23;;;;;;;10.10;9.00;;;15.60;99.90;;;;;;4972669;28;20042;-80
2023/08/06 01:41:49;;;;;;;9.95;8.95;;;15.60;99.90;;;;;;4981932;28;20423;-80
2023/08/06 01:44:15;;;;;;;9.63;8.68;;;15.60;99.90;;;;;;4970776;28;20048;-80
2023/08/06 01:46:41;;;;;;;10.45;9.32;;;15.60;99.90;;;;;;4975163;28;20042;-80
2023/08/06 01:49:06;;;;;;;9.75;8.85;;;15.60;99.90;;;;;;4985856;28;20132;-78
2023/08/06 01:51:32;;;;;;;9.95;9.05;;;15.60;99.90;;;;;;4966989;28;20042;-73
2023/08/06 01:53:58;;;;;;;12.00;9.95;;;15.60;99.90;;;;;;4984767;28;20441;-73
2023/08/06 01:56:24;;;;;;;11.48;9.15;;;15.60;99.90;;;;;;4981813;28;20126;-76
2023/08/06 01:58:49;;;;;;;14.32;9.18;;;15.60;99.90;;;;;;4965062;28;20073;-74
2023/08/06 02:01:15;;;;;;;11.02;9.90;;;15.60;99.90;;;;;;4984555;28;20042;-78
2023/08/06 02:03:41;;;;;;;11.30;10.25;;;15.60;99.90;;;;;;4970535;28;20047;-75
2023/08/06 02:06:07;;;;;;;11.57;10.38;;;15.60;99.90;;;;;;4987198;28;20082;-73
2023/08/06 02:08:33;;;;;;;14.90;10.77;;;15.60;99.90;;;;;;4983093;28;20046;-74
2023/08/06 02:10:59;;;;;;;10.27;9.23;;;15.60;99.90;;;;;;4987205;28;20130;-75
2023/08/06 02:13:25;;;;;;;11.38;10.13;;;15.50;99.90;;;;;;4985996;28;20034;-75
2023/08/06 02:15:50;;;;;;;11.00;9.93;;;15.60;99.90;;;;;;4983482;28;20444;-75
2023/08/06 02:18:16;;;;;;;11.60;10.50;;;15.50;99.90;;;;;;4986530;28;20490;-77
2023/08/06 02:20:42;;;;;;;11.30;10.25;;;15.50;99.90;;;;;;4985072;28;20048;-75
2023/08/06 02:23:09;;;;;;;11.37;10.33;;;15.50;99.90;;;;;;4985194;28;20042;-74
2023/08/06 02:25:35;;;;;;;11.60;10.48;;;15.50;99.90;;;;;;4984306;28;20034;-74
2023/08/06 02:28:00;;;;;;;12.57;10.18;;;15.50;99.90;;;;;;4989316;28;20053;-74
2023/08/06 02:30:26;;;;;;;11.35;10.25;;;15.50;99.90;;;;;;4989620;28;20038;-78
2023/08/06 02:32:52;;;;;;;11.48;10.30;;;15.50;99.90;;;;;;4950114;28;20069;-74
2023/08/06 02:35:18;;;;;;;11.07;10.00;;;15.50;99.90;;;;;;4987105;28;20040;-75
2023/08/06 02:37:43;;;;;;;11.57;10.57;;;15.50;99.90;;;;;;4985346;28;20046;-76
2023/08/06 02:40:09;;;;;;;11.60;9.90;;;15.50;99.90;;;;;;4982091;28;20609;-74
2023/08/06 02:42:35;;;;;;;10.32;9.38;;;15.50;99.90;;;;;;4984681;28;20433;-77
2023/08/06 02:45:01;;;;;;;12.93;10.20;;;15.50;99.90;;;;;;4986611;28;20044;-75
2023/08/06 02:47:26;;;;;;;11.20;10.10;;;15.50;99.90;;;;;;4989450;28;20386;-75
2023/08/06 02:49:52;;;;;;;12.30;10.05;;;15.50;99.90;;;;;;4981213;28;20097;-74
2023/08/06 02:52:18;;;;;;;12.18;10.10;;;15.50;99.90;;;;;;4984481;28;20042;-74
2023/08/06 02:54:44;;;;;;;10.50;9.55;;;15.50;99.90;;;;;;4987282;28;20042;-74
2023/08/06 02:57:10;;;;;;;11.20;10.13;;;15.50;99.90;;;;;;4964919;28;20062;-79
2023/08/06 02:59:35;;;;;;;11.32;10.15;;;15.40;99.90;;;;;;4980679;28;20080;-74
2023/08/06 03:02:01;;;;;;;11.95;10.80;;;15.40;99.90;;;;;;4965750;28;20133;-78
2023/08/06 03:04:27;;;;;;;11.40;10.30;;;15.50;99.90;;;;;;4983307;28;20056;-78
2023/08/06 03:06:53;;;;;;;12.07;10.98;;;15.40;99.90;;;;;;4981816;28;20046;-79
2023/08/06 03:09:18;;;;;;;12.30;10.32;;;15.40;99.90;;;;;;4983185;28;20049;-76
2023/08/06 03:11:44;;;;;;;12.23;11.02;;;15.40;99.90;;;;;;4985108;28;20795;-77
2023/08/06 03:14:10;;;;;;;12.82;11.63;;;15.40;99.90;;;;;;4983369;28;20042;-76
2023/08/06 03:16:36;;;;;;;11.90;10.80;;;15.30;99.90;;;;;;4972107;28;20140;-76
2023/08/06 03:19:01;;;;;;;12.60;11.40;;;15.30;99.90;;;;;;4982031;28;20121;-78
2023/08/06 03:21:27;;;;;;;11.27;10.13;;;15.20;99.90;;;;;;4969603;28;20034;-75
2023/08/06 03:23:53;;;;;;;11.98;10.68;;;15.20;99.90;;;;;;4984507;28;20126;-75
2023/08/06 03:26:18;;;;;;;12.07;10.73;;;15.30;99.90;;;;;;4983172;28;20035;-80
2023/08/06 03:28:44;;;;;;;11.88;10.77;;;15.20;99.90;;;;;;4982951;28;20034;-75
2023/08/06 03:31:10;;;;;;;11.70;10.60;;;15.30;99.90;;;;;;4982618;28;20065;-75
2023/08/06 03:33:36;;;;;;;12.32;10.85;;;15.30;99.90;;;;;;4981345;28;20073;-76
2023/08/06 03:36:01;;;;;;;11.73;10.52;;;15.30;99.90;;;;;;4980439;28;20873;-75
2023/08/06 03:38:27;;;;;;;12.77;11.57;;;15.30;99.90;;;;;;4981775;28;20062;-77
2023/08/06 03:40:53;;;;;;;11.98;10.77;;;15.30;99.90;;;;;;4966533;28;20081;-76
2023/08/06 03:43:19;;;;;;;12.27;11.18;;;15.30;99.90;;;;;;4970426;28;20085;-75
2023/08/06 03:45:45;;;;;;;11.68;10.48;;;15.30;99.90;;;;;;4965018;28;20457;-75
2023/08/06 03:48:10;;;;;;;13.52;10.98;;;15.30;99.90;;;;;;4967988;28;20553;-78
2023/08/06 03:50:36;;;;;;;12.63;11.35;;;15.30;99.90;;;;;;4983183;28;20039;-78
2023/08/06 03:53:02;;;;;;;12.50;10.82;;;15.30;99.90;;;;;;4968212;28;20133;-76
2023/08/06 03:55:28;;;;;;;12.65;11.40;;;15.40;99.90;;;;;;4985513;28;20034;-75
2023/08/06 03:57:53;;;;;;;12.90;11.70;;;15.30;99.90;;;;;;4979949;28;20039;-77
2023/08/06 04:00:19;;;;;;;12.60;11.50;;;15.30;99.90;;;;;;4982870;28;20118;-78
2023/08/06 04:02:45;;;;;;;12.55;11.35;;;15.30;99.90;;;;;;4980681;28;20117;-76
2023/08/06 04:05:11;;;;;;;12.82;11.73;;;15.30;99.90;;;;;;4981394;28;20046;-77
2023/08/06 04:07:37;;;;;;;12.43;11.25;;;15.30;99.90;;;;;;4967852;28;20058;-76
2023/08/06 04:10:04;;;;;;;13.25;11.77;;;15.30;99.90;;;;;;4976590;28;20525;-76
2023/08/06 04:12:30;;;;;;;13.50;11.65;;;15.30;99.90;;;;;;4970943;28;20544;-76
2023/08/06 04:14:58;;;;;;;12.80;11.50;;;15.20;99.90;;;;;;4976131;28;20130;-76
2023/08/06 04:17:24;;;;;;;;;;;15.20;99.90;;;;;;4977497;28;20062;-76
2023/08/06 04:19:54;;;;;;;13.00;11.77;;;15.20;99.90;;;;;;4977148;28;19929;-77
2023/08/06 04:22:21;;;;;;;12.15;10.93;;;15.20;99.90;;;;;;4990687;28;20062;-77
2023/08/06 04:24:47;;;;;;;12.07;10.90;;;15.20;99.90;;;;;;4984860;28;20393;-77
2023/08/06 04:27:14;;;;;;;13.38;12.02;;;15.10;99.90;;;;;;4953081;28;20047;-77
2023/08/06 04:29:40;;;;;;;14.32;10.73;;;15.20;99.90;;;;;;4971128;28;20046;-77
2023/08/06 04:32:08;;;;;;;12.52;11.43;;;15.20;99.90;;;;;;4976190;28;20049;-76
2023/08/06 04:34:35;;;;;;;12.43;11.32;;;15.20;99.90;;;;;;4976835;28;20490;-77
2023/08/06 04:37:00;;;;;;;12.63;11.33;;;15.20;99.90;;;;;;4973491;28;20042;-77
2023/08/06 04:39:26;;;;;;;13.43;12.02;;;15.30;99.90;;;;;;4972200;28;20069;-77
2023/08/06 04:41:52;;;;;;;13.52;12.30;;;15.30;99.90;;;;;;4985219;28;20141;-77
2023/08/06 04:44:18;;;;;;;14.13;12.68;;;15.30;99.90;;;;;;4971441;28;20397;-77
2023/08/06 04:46:44;;;;;;;14.10;12.70;;;15.30;99.90;;;;;;4975962;28;20517;-77
2023/08/06 04:49:09;;;;;;;16.38;14.73;;;15.30;99.90;;;;;;4979160;28;20035;-77
2023/08/06 04:51:35;;;;;;;14.07;12.77;;;15.40;99.90;;;;;;4974975;28;20070;-77
2023/08/06 04:54:01;;;;;;;14.30;12.90;;;15.40;99.90;;;;;;4961030;28;20050;-77
2023/08/06 04:56:26;;;;;;;15.07;13.50;;;15.40;99.90;;;;;;4988880;28;20039;-77
2023/08/06 04:58:52;;;;;;;14.20;12.80;;;15.40;99.90;;;;;;4969949;28;20193;-76
2023/08/06 05:01:18;;;;;;;14.55;13.25;;;15.40;99.90;;;;;;4983208;28;20046;-77
2023/08/06 05:03:44;;;;;;;14.88;13.38;;;15.40;99.90;;;;;;4976532;28;20038;-77
2023/08/06 05:06:10;;;;;;;15.45;14.10;;;15.40;99.90;;;;;;4983180;28;20042;-77
2023/08/06 05:08:36;;;;;;;15.00;13.63;;;15.40;99.90;;;;;;4973677;28;20486;-77
2023/08/06 05:11:02;;;;;;;14.50;13.30;;;15.40;99.90;;;;;;4978951;28;20050;-77
2023/08/06 05:13:27;;;;;;;15.30;14.00;;;15.40;99.90;;;;;;4955679;28;20053;-76
2023/08/06 05:15:54;;;;;;;16.35;14.88;;;15.40;99.90;;;;;;4981225;28;20050;-77
2023/08/06 05:18:19;;;;;;;16.65;15.13;;;15.50;99.90;;;;;;4977225;28;20162;-77
2023/08/06 05:20:45;;;;;;;14.98;13.50;;;15.50;99.90;;;;;;4982212;28;20129;-77
2023/08/06 05:23:11;;;;;;;15.32;13.82;;;15.50;99.90;;;;;;4973795;28;20406;-77
2023/08/06 05:25:38;;;;;;;14.38;12.88;;;15.50;99.90;;;;;;4962899;28;20085;-77
2023/08/06 05:28:04;;;;;;;15.02;13.63;;;15.50;99.90;;;;;;4979434;28;20049;-77
2023/08/06 05:30:30;;;;;;;15.57;14.07;;;15.50;99.90;;;;;;4978502;28;20050;-76
2023/08/06 05:32:56;;;;;;;16.42;15.02;;;15.50;99.90;;;;;;4984864;28;20100;-77
2023/08/06 05:35:22;;;;;;;16.15;14.75;;;15.50;99.90;;;;;;4982368;28;20073;-77
2023/08/06 05:37:48;;;;;;;15.77;14.32;;;15.60;99.90;;;;;;4973729;28;20131;-76
2023/08/06 05:40:14;;;;;;;17.02;15.32;;;15.60;99.90;;;;;;4966389;28;20133;-77
2023/08/06 05:42:40;;;;;;;17.13;15.52;;;15.60;99.90;;;;;;4987064;28;20050;-77
2023/08/06 05:45:06;;;;;;;16.83;15.27;;;15.60;99.90;;;;;;4982270;28;20054;-77
2023/08/06 05:47:32;;;;;;;18.40;16.80;;;15.60;99.90;;;;;;4990701;28;20125;-77
2023/08/06 05:49:58;;;;;;;18.25;16.55;;;15.70;99.90;;;;;;4986714;28;20122;-77
2023/08/06 05:52:24;;;;;;;18.00;16.30;;;15.70;99.90;;;;;;4975606;28;20129;-77
2023/08/06 05:54:49;;;;;;;18.67;16.98;;;15.70;99.90;;;;;;4979555;28;20158;-77
2023/08/06 05:57:16;;;;;;;16.67;15.25;;;15.80;99.90;;;;;;4979503;28;20042;-77
2023/08/06 05:59:42;;;;;;;17.10;15.40;;;15.80;99.90;;;;;;4981412;28;20050;-77
2023/08/06 06:02:08;;;;;;;17.13;15.52;;;15.80;99.90;;;;;;4977319;28;20077;-77
2023/08/06 06:04:33;;;;;;;18.30;16.60;;;15.90;99.90;;;;;;4975816;28;20065;-77
2023/08/06 06:06:59;;;;;;;16.08;14.77;;;16.00;99.90;;;;;;4979894;28;20043;-80
2023/08/06 06:09:25;;;;;;;16.35;14.95;;;16.00;99.90;;;;;;4965241;28;20046;-82
2023/08/06 06:11:51;;;;;;;16.80;15.20;;;16.10;99.90;;;;;;4976640;28;20093;-83
2023/08/06 06:14:18;;;;;;;16.55;15.10;;;16.20;99.90;;;;;;4963429;28;20049;-78
2023/08/06 06:16:44;;;;;;;15.82;14.43;;;16.20;99.90;;;;;;4986560;28;20042;-78
2023/08/06 06:19:09;;;;;;;16.20;14.82;;;16.20;99.90;;;;;;4979672;28;20101;-78
2023/08/06 06:21:35;;;;;;;17.15;15.60;;;16.10;99.90;;;;;;4966760;28;20058;-77
2023/08/06 06:24:01;;;;;;;16.73;15.23;;;16.10;99.90;;;;;;4983602;28;20563;-78
2023/08/06 06:26:27;;;;;;;17.73;16.23;;;16.10;99.90;;;;;;4977174;28;20516;-79
2023/08/06 06:28:52;;;;;;;17.15;15.63;;;16.10;99.90;;;;;;4973668;28;20532;-79
2023/08/06 06:31:18;;;;;;;17.60;16.10;;;16.20;99.90;;;;;;4970439;28;20061;-80
2023/08/06 06:33:44;;;;;;;16.70;15.27;;;16.20;99.90;;;;;;4986873;28;20042;-80
2023/08/06 06:36:09;;;;;;;17.80;16.20;;;16.20;99.90;;;;;;4983539;28;20038;-83
2023/08/06 06:38:36;;;;;;;17.83;16.23;;;16.20;99.90;;;;;;4975162;28;20216;-75
2023/08/06 06:41:03;;;;;;;17.27;15.68;;;16.20;99.90;;;;;;4960339;28;20050;-82
2023/08/06 06:43:29;;;;;;;18.50;16.80;;;16.10;99.90;;;;;;4986315;28;20952;-76
2023/08/06 06:45:58;;;;;;;17.90;16.40;;;16.20;99.90;;;;;;4967272;28;20309;-80
2023/08/06 06:48:29;;;;;;;18.30;16.80;;;16.30;99.90;;;;;;4977799;28;20049;-79
2023/08/06 06:50:55;;;;;;;18.10;16.38;;;16.30;99.90;;;;;;4965715;28;20038;-82
2023/08/06 06:53:26;;;;;;;19.20;17.50;;;16.30;99.90;;;;;;4984621;28;20045;-80
2023/08/06 06:56:02;;;;;;;18.27;16.67;;;16.30;99.90;;;;;;4981430;28;20051;-79
2023/08/06 06:58:28;;;;;;;17.13;15.55;;;16.30;99.90;;;;;;4966130;28;20046;-79
2023/08/06 07:00:53;;;;;;;17.15;15.70;;;16.40;99.90;;;;;;4971696;28;20053;-79
2023/08/06 07:03:22;;;;;;;17.73;16.05;;;16.40;99.90;;;;;;4978592;28;20046;-79
2023/08/06 07:05:48;;;;;;;17.52;16.00;;;16.50;99.90;;;;;;4975184;28;20042;-78
2023/08/06 07:08:13;;;;;;;16.63;15.23;;;16.50;99.90;;;;;;4971843;28;20102;-78
2023/08/06 07:10:41;;;;;;;16.40;14.65;;;16.60;99.90;;;;;;4974751;28;20093;-79
2023/08/06 07:13:07;;;;;;;15.10;13.80;;;16.70;99.90;;;;;;4972022;28;20050;-78
2023/08/06 07:15:33;;;;;;;16.25;14.82;;;16.80;99.90;;;;;;4984788;28;20452;-78
2023/08/06 07:17:59;;;;;;;16.08;14.68;;;16.80;99.90;;;;;;4983609;28;20054;-78
2023/08/06 07:20:24;;;;;;;15.25;13.85;;;16.80;99.90;;;;;;4987504;28;20461;-78
2023/08/06 07:22:50;;;;;;;15.57;13.95;;;16.80;99.90;;;;;;4983595;28;20070;-78
2023/08/06 07:25:16;;;;;;;15.57;14.18;;;16.70;99.90;;;;;;4982253;28;20038;-78
2023/08/06 07:27:42;;;;;;;14.10;12.90;;;16.80;99.90;;;;;;4980913;28;20069;-79
2023/08/06 07:30:08;;;;;;;15.30;14.00;;;16.80;99.90;;;;;;4971388;28;20395;-81
2023/08/06 07:32:34;;;;;;;16.20;14.43;;;16.90;99.90;;;;;;4970280;28;20451;-80
2023/08/06 07:35:00;;;;;;;14.80;13.35;;;17.00;99.90;;;;;;4980175;28;20069;-80
2023/08/06 07:37:29;;;;;;;15.20;13.88;;;17.00;99.90;;;;;;4983197;28;20050;-80
2023/08/06 07:39:58;;;;;;;14.32;13.13;;;17.00;99.90;;;;;;4983893;28;20034;-79
2023/08/06 07:42:23;;;;;;;14.43;13.13;;;17.10;99.90;;;;;;4988727;28;20062;-72
2023/08/06 07:44:54;;;;;;;14.63;13.27;;;17.20;99.90;;;;;;4976139;28;20042;-81
2023/08/06 07:47:20;;;;;;;14.20;12.90;;;17.10;99.90;;;;;;4979165;28;20378;-81
2023/08/06 07:49:46;;;;;;;14.93;13.40;;;17.10;99.90;;;;;;4983627;28;20049;-84
2023/08/06 07:52:11;;;;;;;14.45;13.30;;;17.20;99.90;;;;;;4980197;28;20129;-79
2023/08/06 07:54:37;;;;;;;14.27;12.98;;;17.20;99.90;;;;;;4953576;28;20093;-81
2023/08/06 07:57:03;;;;;;;14.82;13.27;;;17.30;99.90;;;;;;4969635;28;20047;-80
2023/08/06 07:59:29;;;;;;;14.48;13.00;;;17.40;99.90;;;;;;4989126;28;20498;-85
2023/08/06 08:01:54;;;;;;;13.77;12.70;;;17.40;99.90;;;;;;4987221;28;20386;-79
2023/08/06 08:04:20;;;;;;;14.20;12.82;;;17.40;99.90;;;;;;4964298;28;20134;-82
2023/08/06 08:06:47;;;;;;;14.60;13.40;;;17.50;99.90;;;;;;4956833;28;20454;-81
2023/08/06 08:09:13;;;;;;;13.48;12.38;;;17.50;99.90;;;;;;4977834;28;20062;-79
2023/08/06 08:11:40;;;;;;;14.17;12.87;;;17.40;99.90;;;;;;4981246;28;20118;-81
2023/08/06 08:14:05;;;;;;;13.32;12.23;;;17.50;99.90;;;;;;4966811;28;20049;-79
2023/08/06 08:16:31;;;;;;;14.40;13.10;;;17.50;99.90;;;;;;4966929;28;20058;-80
2023/08/06 08:18:57;;;;;;;14.23;12.93;;;17.50;99.90;;;;;;4973179;28;20043;-84
2023/08/06 08:21:24;;;;;;;13.20;12.10;;;17.50;99.90;;;;;;4976623;28;20074;-79
2023/08/06 08:23:50;;;;;;;13.73;12.40;;;17.50;99.90;;;;;;4983763;28;20069;-79
2023/08/06 08:26:16;;;;;;;12.93;11.73;;;17.50;99.90;;;;;;4968570;28;20043;-78
2023/08/06 08:28:42;;;;;;;12.55;11.55;;;17.60;99.90;;;;;;4978971;28;20042;-78
2023/08/06 08:31:11;;;;;;;12.63;11.48;;;17.70;99.90;;;;;;4980042;28;20043;-79
2023/08/06 08:33:40;;;;;;;12.43;11.15;;;17.70;99.90;;;;;;4962298;28;20050;-81
2023/08/06 08:36:06;;;;;;;12.32;11.07;;;17.70;99.90;;;;;;4957962;28;20053;-80
2023/08/06 08:38:32;;;;;;;10.93;9.93;;;17.80;99.90;;;;;;4962466;28;20456;-83
2023/08/06 08:40:57;;;;;;;10.38;9.45;;;18.00;99.90;;;;;;4985923;28;20532;-81
2023/08/06 08:43:24;;;;;;;11.05;10.05;;;18.10;99.90;;;;;;4978532;28;20108;-81
2023/08/06 08:46:00;;;;;;;10.45;9.45;;;18.30;99.90;;;;;;4989600;28;20544;-82
2023/08/06 08:48:29;;;;;;;11.02;10.02;;;18.40;99.90;;;;;;4980327;28;20057;-82
2023/08/06 08:50:56;;;;;;;11.68;10.57;;;18.70;99.90;;;;;;4973760;28;20057;-87
2023/08/06 08:53:23;;;;;;;11.23;10.00;;;18.90;99.90;;;;;;4974890;28;20556;-86
2023/08/06 08:55:49;;;;;;;10.73;9.73;;;19.10;99.90;;;;;;4987082;28;20320;-85
2023/08/06 08:58:16;;;;;;;10.23;9.32;;;19.20;99.90;;;;;;4980739;28;20042;-83
2023/08/06 09:00:48;;;;;;;9.35;8.55;;;19.20;99.90;;;;;;4965149;28;20517;-83
2023/08/06 09:03:14;;;;;;;11.02;8.98;;;19.20;99.90;;;;;;4977980;28;20038;-85
2023/08/06 09:05:43;;;;;;;10.00;9.10;;;19.20;99.90;;;;;;4963579;28;20069;-84
2023/08/06 09:08:11;;;;;;;9.63;8.82;;;19.20;99.90;;;;;;4967945;28;20393;-82
2023/08/06 09:10:38;;;;;;;9.90;8.90;;;19.20;99.90;;;;;;4988090;28;20659;-81
2023/08/06 09:13:04;;;;;;;9.25;8.45;;;19.10;99.90;;;;;;4971955;28;20050;-85
2023/08/06 09:15:31;;;;;;;9.57;8.30;;;19.00;99.90;;;;;;4977805;28;20051;-83
2023/08/06 09:17:56;;;;;;;9.40;8.60;;;19.00;99.90;;;;;;4979151;28;20612;-82
2023/08/06 09:20:22;;;;;;;9.75;8.77;;;19.00;99.90;;;;;;4972184;28;20150;-85
2023/08/06 09:22:48;;;;;;;9.18;8.27;;;19.10;99.90;;;;;;4973288;28;20057;-80
2023/08/06 09:25:24;;;;;;;10.38;9.38;;;19.20;99.90;;;;;;4986049;28;20497;-81
2023/08/06 09:27:50;;;;;;;8.93;8.13;;;19.40;99.90;;;;;;4975109;28;20053;-83
2023/08/06 09:30:33;;;;;;;9.07;8.27;;;19.40;99.90;;;;;;4967817;28;20046;-80
2023/08/06 09:32:59;;;;;;;8.75;7.90;;;19.40;99.90;;;;;;4983308;28;20077;-82
2023/08/06 09:35:30;;;;;;;8.50;7.63;;;19.40;99.90;;;;;;4985423;28;20074;-84
2023/08/06 09:37:56;;;;;;;10.30;8.80;;;19.40;99.90;;;;;;4990169;28;20144;-85
2023/08/06 09:40:31;;;;;;;8.88;7.97;;;19.40;99.90;;;;;;4979900;28;20123;-86
2023/08/06 09:42:58;;;;;;;8.10;7.30;;;19.40;99.90;;;;;;4983157;28;20042;-85
2023/08/06 09:45:30;;;;;;;7.05;6.45;;;19.50;99.90;;;;;;4966033;28;20496;-84
2023/08/06 09:47:56;;;;;;;8.50;6.97;;;19.60;99.90;;;;;;4977906;28;20398;-81
2023/08/06 09:50:22;;;;;;;8.57;7.37;;;19.70;99.90;;;;;;4972052;28;20173;-78
2023/08/06 09:52:50;;;;;;;8.07;7.23;;;19.70;99.90;;;;;;4987195;28;20046;-82
2023/08/06 09:55:16;;;;;;;8.35;7.55;;;19.80;99.90;;;;;;4979456;28;20305;-85
2023/08/06 09:57:42;;;;;;;7.60;6.68;;;19.90;99.90;;;;;;4979283;28;20053;-82
2023/08/06 10:00:10;;;;;;;7.60;6.80;;;19.90;99.90;;;;;;4986899;28;20058;-83
2023/08/06 10:02:38;;;;;;;7.20;6.60;;;19.90;99.90;;;;;;4980150;28;20108;-82
2023/08/06 10:05:05;;;;;;;6.80;6.20;;;19.90;99.90;;;;;;4989064;28;20121;-76
2023/08/06 10:07:31;;;;;;;8.70;6.55;;;20.00;99.90;;;;;;4971855;28;20090;-79
2023/08/06 10:09:58;;;;;;;7.15;6.45;;;20.00;99.90;;;;;;4971999;28;20516;-84
2023/08/06 10:12:25;;;;;;;7.50;6.80;;;20.00;99.90;;;;;;4984239;28;20140;-81
2023/08/06 10:14:53;;;;;;;6.10;5.50;;;20.00;99.90;;;;;;4977571;28;20053;-80
2023/08/06 10:17:21;;;;;;;7.93;5.57;;;20.00;99.90;;;;;;4983473;28;20053;-84
2023/08/06 10:19:47;;;;;;;;;;;20.10;99.90;;;;;;4984501;28;20533;-83
2023/08/06 10:22:15;;;;;;;10.15;5.38;;;20.20;99.90;;;;;;4987414;28;19930;-80
2023/08/06 10:24:58;;;;;;;6.80;5.30;;;20.40;99.90;;;;;;4981991;28;20118;-84
2023/08/06 10:27:39;;;;;;;6.57;5.22;;;20.50;99.90;;;;;;4967641;28;20073;-80
2023/08/06 10:30:31;;;;;;;6.43;5.82;;;20.70;99.90;;;;;;4971145;28;20050;-81
2023/08/06 10:33:02;;;;;;;6.55;4.50;;;20.90;99.90;;;;;;4989274;28;20125;-79
2023/08/06 10:35:34;;;;;;;4.93;4.40;;;20.90;99.90;;;;;;4970069;28;20045;-79
2023/08/06 10:38:14;;;;;;;5.53;4.07;;;20.80;99.90;;;;;;4971635;28;20047;-83
2023/08/06 10:40:41;;;;;;;6.05;4.53;;;20.80;99.90;;;;;;4982532;28;20485;-80
2023/08/06 10:43:08;;;;;;;4.90;4.35;;;20.90;99.90;;;;;;4970818;28;20039;-80
2023/08/06 10:45:35;;;;;;;5.85;4.70;;;21.00;99.90;;;;;;4984374;28;20041;-87
2023/08/06 10:48:02;;;;;;;6.00;4.88;;;21.10;99.90;;;;;;4963385;28;20107;-85
2023/08/06 10:50:27;;;;;;;5.72;4.30;;;21.20;99.90;;;;;;4970843;28;20039;-80
2023/08/06 10:52:54;;;;;;;6.63;4.40;;;21.30;99.90;;;;;;4984624;28;20042;-79
2023/08/06 10:55:27;;;;;;;6.10;4.30;;;21.50;99.90;;;;;;4980624;28;20042;-86
2023/08/06 10:57:54;;;;;;;4.15;3.33;;;21.60;99.90;;;;;;4981651;28;20046;-84
2023/08/06 11:00:22;;;;;;;5.13;3.83;;;21.60;99.90;;;;;;4980454;28;20514;-84
2023/08/06 11:02:51;;;;;;;5.93;4.00;;;21.70;99.90;;;;;;4974756;28;20133;-82
2023/08/06 11:05:17;;;;;;;6.40;4.82;;;21.70;99.90;;;;;;4987615;28;20046;-80
2023/08/06 11:07:43;;;;;;;4.68;4.28;;;21.70;99.90;;;;;;4979018;28;20069;-79
2023/08/06 11:10:13;;;;;;;5.27;4.40;;;21.70;99.90;;;;;;4977365;28;20042;-78
2023/08/06 11:12:39;;;;;;;5.78;4.00;;;21.70;99.90;;;;;;4983844;28;20696;-79
2023/08/06 11:15:05;;;;;;;3.80;3.50;;;21.60;99.90;;;;;;4979860;28;20544;-79
2023/08/06 11:17:33;;;;;;;4.05;3.60;;;21.40;99.90;;;;;;4969701;28;20125;-84
2023/08/06 11:20:08;;;;;;;5.28;3.28;;;21.30;99.90;;;;;;4981414;28;20043;-80
2023/08/06 11:22:35;;;;;;;5.97;3.30;;;21.20;99.90;;;;;;4985253;28;20158;-75
2023/08/06 11:25:01;;;;;;;;;;;21.20;99.90;;;;;;4981962;28;20042;-85
2023/08/06 11:27:28;;;;;;;4.10;3.20;;;21.10;99.90;;;;;;4978215;28;19938;-84
2023/08/06 11:29:54;;;;;;;3.58;3.20;;;21.10;99.90;;;;;;4973400;28;20050;-80
2023/08/06 11:32:20;;;;;;;4.65;3.05;;;21.20;99.90;;;;;;4982917;28;20089;-81
2023/08/06 11:34:46;;;;;;;3.90;2.70;;;21.40;99.90;;;;;;4971292;28;20046;-80
2023/08/06 11:37:11;;;;;;;4.75;3.30;;;21.70;99.90;;;;;;4965928;28;20449;-83
2023/08/06 11:39:39;;;;;;;4.45;2.50;;;21.90;99.90;;;;;;4972687;28;20122;-85
2023/08/06 11:42:05;;;;;;;;;;;22.20;99.90;;;;;;4975418;28;20057;-83
2023/08/06 11:44:33;;;;;;;5.50;2.88;;;22.50;99.90;;;;;;4968726;28;20360;-80
2023/08/06 11:47:01;;;;;;;4.20;2.80;;;22.60;99.90;;;;;;4972637;28;20177;-81
2023/08/06 11:49:46;;;;;;;4.40;3.00;;;22.50;99.90;;;;;;4982577;28;20046;-83
2023/08/06 11:52:19;;;;;;;3.40;2.60;;;22.30;99.90;;;;;;4988157;28;20840;-85
2023/08/06 11:54:46;;;;;;;5.57;2.90;;;22.10;99.90;;;;;;4986732;28;20051;-78
2023/08/06 11:57:12;;;;;;;7.28;2.65;;;21.90;99.90;;;;;;4964010;28;20038;-83
2023/08/06 11:59:39;;;;;;;2.70;2.50;;;21.80;99.90;;;;;;4986818;28;20062;-87
2023/08/06 12:02:08;;;;;;;4.22;2.30;;;21.70;99.90;;;;;;4984095;28;20301;-83
2023/08/06 12:05:04;;;;;;;3.97;2.70;;;21.60;99.90;;;;;;4969989;28;20047;-85
2023/08/06 12:07:31;;;;;;;3.22;2.92;;;21.50;99.90;;;;;;4982432;28;20089;-80
2023/08/06 12:09:58;;;;;;;4.15;3.10;;;21.30;99.90;;;;;;4985202;28;20037;-79
2023/08/06 12:12:24;;;;;;;3.10;2.85;;;21.30;99.90;;;;;;4986297;28;20039;-73
2023/08/06 12:14:50;;;;;;;9.45;2.88;;;21.10;99.90;;;;;;4985737;28;20073;-81
2023/08/06 12:17:15;;;;;;;4.75;3.13;;;21.00;99.90;;;;;;4985952;28;20070;-80
2023/08/06 12:19:41;;;;;;;3.33;2.90;;;20.90;99.90;;;;;;4986017;28;20045;-85
2023/08/06 12:22:07;;;;;;;4.00;3.38;;;20.80;99.90;;;;;;4960716;28;20117;-82
2023/08/06 12:24:32;;;;;;;3.40;2.67;;;20.70;99.90;;;;;;4985809;28;20053;-80
2023/08/06 12:26:58;;;;;;;3.63;2.75;;;20.60;99.90;;;;;;4969119;28;20134;-82
2023/08/06 12:29:25;;;;;;;3.97;2.42;;;20.50;99.90;;;;;;4966624;28;20080;-77
2023/08/06 12:31:51;;;;;;;3.70;2.75;;;20.50;99.90;;;;;;4992996;28;20117;-79
2023/08/06 12:34:17;;;;;;;6.55;3.10;;;20.50;99.90;;;;;;4979465;28;20162;-86